Portada
METAR-TAF:

METAR-TAF

Aeropuertos :

Kunming, China

Aeropuerto Internacional de Kunming-Changshui

latitud: 25-01N, longitud: 102-41E, altitud: 1892 m

Observación

El informe se hizo hace 1 hora y 7 minutos, a las 22:00 UTC
Viento 8 kt del norte-noreste
Temperatura 9°C
Humedad 100%
Presión 1022 hPa
Visibilidad: 6000 m
Nubes dispersas a una altura de 2600 ft
Nubes dispersas a una altura de 3600 ft

METAR: ZPPP 172200Z 03004MPS 6000 SCT026 SCT036 09/09 Q1022 NOSIG

Hora: 07:07 (23:07 UTC)

Pronóstico

El informe se hizo hace 10 horas y 4 minutos, a las 13:03 UTC
Pronóstico válido del 17 a las 18 UTC al 18 a las 18 UTC
Viento 8 kt del noreste
Visibilidad 10 km o más
Nubes dispersas a una altura de 2600 ft

TAF: ZPPP 171303Z 1718/1818 04004MPS 9999 SCT026 TX17/1808Z TN08/1723Z

Observaciones y pronósticos meteorológicos de más de 4000 aeropuertos (mensajes METAR y TAF).

Los puntos amarillos y rojos representan las estaciones disponibles.

Ponga el ratón en el punto deseado para ver el nombre de la estación.

Haga clic para ver las observaciones y los pronósticos meteorológicos.

Para cambiar el mapa : haga clic en los botones verdes con una cruz de color negro para hacer un zoom, en el botón verde con un guión para alejar o en las flechas verdes para mapas adyacentes.


METAR-TAF: